createdAt,value
2023-04-17T00:01:00.992Z,6.37
2023-04-17T00:03:27.660Z,7.33
2023-04-17T00:05:54.275Z,7.80
2023-04-17T00:08:21.277Z,7.33
2023-04-17T00:10:53.989Z,7.70
2023-04-17T00:13:31.207Z,7.37
2023-04-17T00:15:57.702Z,7.50
2023-04-17T00:18:24.259Z,7.57
2023-04-17T00:20:50.803Z,7.70
2023-04-17T00:23:17.338Z,7.23
2023-04-17T00:25:43.899Z,8.77
2023-04-17T00:28:10.696Z,7.27
2023-04-17T00:30:37.231Z,6.93
2023-04-17T00:33:03.802Z,7.50
2023-04-17T00:35:30.368Z,7.63
2023-04-17T00:37:56.900Z,7.43
2023-04-17T00:40:23.442Z,6.83
2023-04-17T00:42:53.152Z,6.80
2023-04-17T00:45:20.864Z,6.60
2023-04-17T00:47:48.669Z,6.83
2023-04-17T00:50:15.463Z,7.18
2023-04-17T00:52:42.258Z,6.30
2023-04-17T00:55:09.076Z,6.33
2023-04-17T00:57:36.007Z,6.13
2023-04-17T01:00:02.747Z,5.73
2023-04-17T01:02:30.056Z,6.23
2023-04-17T01:04:57.199Z,4.93
2023-04-17T01:07:24.277Z,5.20
2023-04-17T01:09:50.953Z,5.03
2023-04-17T01:12:24.386Z,5.03
2023-04-17T01:14:52.426Z,4.87
2023-04-17T01:17:19.699Z,4.87
2023-04-17T01:19:46.838Z,5.00
2023-04-17T01:22:13.646Z,4.47
2023-04-17T01:24:40.161Z,4.33
2023-04-17T01:27:07.796Z,4.33
2023-04-17T01:29:35.460Z,4.50
2023-04-17T01:32:02.126Z,4.37
2023-04-17T01:34:29.068Z,4.60
2023-04-17T01:36:55.569Z,4.10
2023-04-17T01:39:22.125Z,4.70
2023-04-17T01:41:48.622Z,4.53
2023-04-17T01:44:15.189Z,4.50
2023-04-17T01:46:41.857Z,4.97
2023-04-17T01:49:08.388Z,4.87
2023-04-17T01:51:34.999Z,4.40
2023-04-17T01:54:01.499Z,4.57
2023-04-17T01:56:29.295Z,4.63
2023-04-17T01:58:55.966Z,4.63
2023-04-17T02:01:22.622Z,4.40
2023-04-17T02:03:49.444Z,4.33
2023-04-17T02:06:16.408Z,4.47
2023-04-17T02:08:44.190Z,4.57
2023-04-17T02:11:10.748Z,3.67
2023-04-17T02:13:37.230Z,4.07
2023-04-17T02:16:03.902Z,3.63
2023-04-17T02:18:30.504Z,3.80
2023-04-17T02:20:59.969Z,3.43
2023-04-17T02:23:26.703Z,4.00
2023-04-17T02:25:53.224Z,3.47
2023-04-17T02:28:19.822Z,3.80
2023-04-17T02:30:46.335Z,3.40
2023-04-17T02:33:12.970Z,3.70
2023-04-17T02:35:39.632Z,3.33
2023-04-17T02:38:06.338Z,3.10
2023-04-17T02:40:33.925Z,3.27
2023-04-17T02:43:01.986Z,3.20
2023-04-17T02:45:29.396Z,3.10
2023-04-17T02:47:56.650Z,3.20
2023-04-17T02:50:24.092Z,3.40
2023-04-17T02:53:11.771Z,3.63
2023-04-17T02:55:38.312Z,3.10
2023-04-17T02:58:04.833Z,3.47
2023-04-17T03:00:31.387Z,3.40
2023-04-17T03:02:58.042Z,3.10
2023-04-17T03:05:24.750Z,3.10
2023-04-17T03:07:53.591Z,3.20
2023-04-17T03:10:20.383Z,3.10
2023-04-17T03:12:46.988Z,2.87
2023-04-17T03:15:13.578Z,3.30
2023-04-17T03:17:40.439Z,3.00
2023-04-17T03:20:08.095Z,2.90
2023-04-17T03:22:34.781Z,2.73
2023-04-17T03:25:01.880Z,2.70
2023-04-17T03:27:35.686Z,3.00
2023-04-17T03:30:03.289Z,2.83
2023-04-17T03:32:31.106Z,2.60
2023-04-17T03:34:57.631Z,2.80
2023-04-17T03:37:24.211Z,2.93
2023-04-17T03:39:51.027Z,2.87
2023-04-17T03:42:17.657Z,2.97
2023-04-17T03:44:44.228Z,3.30
2023-04-17T03:47:11.424Z,2.97
2023-04-17T03:49:41.188Z,2.90
2023-04-17T03:52:07.784Z,2.50
2023-04-17T03:54:35.789Z,3.10
2023-04-17T03:57:04.802Z,2.97
2023-04-17T03:59:32.207Z,3.30
2023-04-17T04:01:58.878Z,3.33
2023-04-17T04:04:27.823Z,3.00
2023-04-17T04:07:04.500Z,2.93
2023-04-17T04:09:31.235Z,3.73
2023-04-17T04:11:58.722Z,2.97
2023-04-17T04:14:26.118Z,3.20
2023-04-17T04:16:52.984Z,3.60
2023-04-17T04:19:20.405Z,3.50
2023-04-17T04:21:47.433Z,3.60
2023-04-17T04:24:14.842Z,3.63
2023-04-17T04:26:43.160Z,3.40
2023-04-17T04:29:11.902Z,3.97
2023-04-17T04:31:53.661Z,3.57
2023-04-17T04:34:25.841Z,3.77
2023-04-17T04:36:52.603Z,4.03
2023-04-17T04:39:30.022Z,3.93
2023-04-17T04:42:05.806Z,4.10
2023-04-17T04:44:42.493Z,3.87
2023-04-17T04:47:09.556Z,3.80
2023-04-17T04:49:36.575Z,4.37
2023-04-17T04:52:03.125Z,3.70
2023-04-17T04:54:32.922Z,3.73
2023-04-17T04:57:01.442Z,4.03
2023-04-17T04:59:28.433Z,4.10
2023-04-17T05:02:13.841Z,3.80
2023-04-17T05:04:41.344Z,6.63
2023-04-17T05:07:08.061Z,5.43
2023-04-17T05:09:36.964Z,4.43
2023-04-17T05:12:08.551Z,4.67
2023-04-17T05:14:35.723Z,4.47
2023-04-17T05:17:02.722Z,3.87
2023-04-17T05:19:30.707Z,4.23
2023-04-17T05:22:01.486Z,4.30
2023-04-17T05:24:31.103Z,4.07
2023-04-17T05:26:58.255Z,4.07
2023-04-17T05:29:25.273Z,3.87
2023-04-17T05:31:53.306Z,4.33
2023-04-17T05:34:46.662Z,4.20
2023-04-17T05:37:14.065Z,3.90
2023-04-17T05:39:40.597Z,4.20
2023-04-17T05:42:07.995Z,3.97
2023-04-17T05:44:34.566Z,4.40
2023-04-17T05:47:01.183Z,4.80
2023-04-17T05:49:27.768Z,4.60
2023-04-17T05:51:54.379Z,4.43
2023-04-17T05:54:20.953Z,4.27
2023-04-17T05:56:50.005Z,4.27
2023-04-17T05:59:17.159Z,4.63
2023-04-17T06:01:43.870Z,4.87
2023-04-17T06:04:10.770Z,4.53
2023-04-17T06:06:37.494Z,4.73
2023-04-17T06:09:05.813Z,5.10
2023-04-17T06:11:32.559Z,5.10
2023-04-17T06:13:59.106Z,6.67
2023-04-17T06:16:26.618Z,8.00
2023-04-17T06:18:53.213Z,8.63
2023-04-17T06:21:21.185Z,5.47
2023-04-17T06:23:48.154Z,5.37
2023-04-17T06:26:16.734Z,5.53
2023-04-17T06:28:43.271Z,5.40
2023-04-17T06:31:10.257Z,5.23
2023-04-17T06:33:36.850Z,5.50
2023-04-17T06:36:03.677Z,5.50
2023-04-17T06:38:40.119Z,5.33
2023-04-17T06:41:07.563Z,5.10
2023-04-17T06:43:36.118Z,5.30
2023-04-17T06:46:12.349Z,5.43
2023-04-17T06:48:38.955Z,6.00
2023-04-17T06:51:05.560Z,5.60
2023-04-17T06:53:32.418Z,5.53
2023-04-17T06:55:58.912Z,5.77
2023-04-17T06:58:25.472Z,5.73
2023-04-17T07:00:52.041Z,6.17
2023-04-17T07:03:18.733Z,6.60
2023-04-17T07:05:45.415Z,7.70
2023-04-17T07:08:11.942Z,7.53
2023-04-17T07:10:38.463Z,7.17
2023-04-17T07:13:05.010Z,7.33
2023-04-17T07:15:31.608Z,7.63
2023-04-17T07:17:58.259Z,7.17
2023-04-17T07:20:24.899Z,7.67
2023-04-17T07:22:51.464Z,7.07
2023-04-17T07:25:18.115Z,7.40
2023-04-17T07:27:44.636Z,6.57
2023-04-17T07:30:11.507Z,7.43
2023-04-17T07:32:38.186Z,7.97
2023-04-17T07:35:05.023Z,6.73
2023-04-17T07:37:31.672Z,6.77
2023-04-17T07:39:58.193Z,7.33
2023-04-17T07:42:24.680Z,7.87
2023-04-17T07:44:51.253Z,7.70
2023-04-17T07:47:17.824Z,10.70
2023-04-17T07:49:48.805Z,11.70
2023-04-17T07:52:17.726Z,13.20
2023-04-17T07:54:44.400Z,8.77
2023-04-17T07:57:11.218Z,15.13
2023-04-17T07:59:37.746Z,11.60
2023-04-17T08:02:04.299Z,8.60
2023-04-17T08:04:31.077Z,8.77
2023-04-17T08:06:57.811Z,8.73
2023-04-17T08:09:24.378Z,8.40
2023-04-17T08:11:57.580Z,7.70
2023-04-17T08:14:25.154Z,8.37
2023-04-17T08:16:51.908Z,8.13
2023-04-17T08:19:18.753Z,8.63
2023-04-17T08:21:47.264Z,8.10
2023-04-17T08:24:13.834Z,8.00
2023-04-17T08:26:40.737Z,8.27
2023-04-17T08:29:08.213Z,7.90
2023-04-17T08:31:36.878Z,7.87
2023-04-17T08:34:13.684Z,8.10
2023-04-17T08:36:41.726Z,8.70
2023-04-17T08:39:10.204Z,8.03
2023-04-17T08:41:41.138Z,8.97
2023-04-17T08:44:07.660Z,8.83
2023-04-17T08:46:34.670Z,8.80
2023-04-17T08:49:02.957Z,9.10
2023-04-17T08:51:29.509Z,8.37
2023-04-17T08:53:56.089Z,8.90
2023-04-17T08:56:22.828Z,8.77
2023-04-17T08:58:49.405Z,8.70
2023-04-17T09:01:16.692Z,8.63
2023-04-17T09:03:44.032Z,8.20
2023-04-17T09:06:11.361Z,9.00
2023-04-17T09:08:38.614Z,8.87
2023-04-17T09:11:05.703Z,9.70
2023-04-17T09:13:38.954Z,9.70
2023-04-17T09:16:06.868Z,10.00
2023-04-17T09:18:34.290Z,10.10
2023-04-17T09:21:01.553Z,9.30
2023-04-17T09:23:29.783Z,9.67
2023-04-17T09:26:09.922Z,10.23
2023-04-17T09:28:39.065Z,9.93
2023-04-17T09:31:24.865Z,10.73
2023-04-17T09:34:04.536Z,10.20
2023-04-17T09:36:32.084Z,10.03
2023-04-17T09:39:02.314Z,10.20
2023-04-17T09:41:29.972Z,9.97
2023-04-17T09:44:01.017Z,10.47
2023-04-17T09:46:45.659Z,10.40
2023-04-17T09:49:33.892Z,9.43
2023-04-17T09:52:01.079Z,10.03
2023-04-17T09:54:31.321Z,10.23
2023-04-17T09:56:58.499Z,10.70
2023-04-17T09:59:25.793Z,10.47
2023-04-17T10:01:54.218Z,11.00
2023-04-17T10:04:21.493Z,10.93
2023-04-17T10:06:49.480Z,10.57
2023-04-17T10:09:16.001Z,10.10
2023-04-17T10:11:43.614Z,10.13
2023-04-17T10:14:19.430Z,10.50
2023-04-17T10:16:47.242Z,10.77
2023-04-17T10:19:24.215Z,10.87
2023-04-17T10:22:10.035Z,11.37
2023-04-17T10:24:36.591Z,10.60
2023-04-17T10:27:23.066Z,11.60
2023-04-17T10:29:56.977Z,11.50
2023-04-17T10:32:30.432Z,11.13
2023-04-17T10:35:00.824Z,10.57
2023-04-17T10:37:46.408Z,11.57
2023-04-17T10:40:17.816Z,11.57
2023-04-17T10:43:01.245Z,10.73
2023-04-17T10:45:47.824Z,10.67
2023-04-17T10:48:21.354Z,10.37
2023-04-17T10:50:48.031Z,10.47
2023-04-17T10:53:33.150Z,10.57
2023-04-17T10:55:59.735Z,11.03
2023-04-17T10:58:31.728Z,10.80
2023-04-17T11:01:02.425Z,10.33
2023-04-17T11:03:29.973Z,11.67
2023-04-17T11:05:58.912Z,11.07
2023-04-17T11:08:25.557Z,11.73
2023-04-17T11:10:53.027Z,11.57
2023-04-17T11:13:19.531Z,11.47
2023-04-17T11:15:46.089Z,11.43
2023-04-17T11:18:12.731Z,11.13
2023-04-17T11:20:39.429Z,10.60
2023-04-17T11:23:06.589Z,10.43
2023-04-17T11:25:34.389Z,11.07
2023-04-17T11:28:02.134Z,10.70
2023-04-17T11:30:33.461Z,10.97
2023-04-17T11:33:03.974Z,10.93
2023-04-17T11:35:32.052Z,26.37
2023-04-17T11:38:12.164Z,24.90
2023-04-17T11:40:43.401Z,18.60
2023-04-17T11:43:10.584Z,19.50
2023-04-17T11:45:37.672Z,13.60
2023-04-17T11:48:04.467Z,12.60
2023-04-17T11:50:32.099Z,12.73
2023-04-17T11:53:00.227Z,11.50
2023-04-17T11:55:33.441Z,12.63
2023-04-17T11:58:06.172Z,12.97
2023-04-17T12:00:33.251Z,10.07
2023-04-17T12:03:01.143Z,10.07
2023-04-17T12:05:28.911Z,10.27
2023-04-17T12:08:00.068Z,11.03
2023-04-17T12:10:36.099Z,8.90
2023-04-17T12:13:02.616Z,8.90
2023-04-17T12:15:29.159Z,8.33
2023-04-17T12:17:55.754Z,10.07
2023-04-17T12:20:23.164Z,13.00
2023-04-17T12:22:50.872Z,12.23
2023-04-17T12:25:17.451Z,8.10
2023-04-17T12:27:43.957Z,7.67
2023-04-17T12:30:10.970Z,7.23
2023-04-17T12:32:39.484Z,8.50
2023-04-17T12:35:06.304Z,10.13
2023-04-17T12:37:33.019Z,7.00
2023-04-17T12:39:59.536Z,7.40
2023-04-17T12:42:26.830Z,7.67
2023-04-17T12:44:54.761Z,8.70
2023-04-17T12:47:21.316Z,6.30
2023-04-17T12:49:47.875Z,6.73
2023-04-17T12:52:14.382Z,5.80
2023-04-17T12:54:41.071Z,5.80
2023-04-17T12:57:07.739Z,5.50
2023-04-17T12:59:34.299Z,4.47
2023-04-17T13:02:01.008Z,4.83
2023-04-17T13:04:27.677Z,4.67
2023-04-17T13:06:54.414Z,4.27
2023-04-17T13:09:21.104Z,5.23
2023-04-17T13:11:47.607Z,5.80
2023-04-17T13:14:15.351Z,9.77
2023-04-17T13:16:42.028Z,12.00
2023-04-17T13:19:08.701Z,8.80
2023-04-17T13:21:35.236Z,7.73
2023-04-17T13:24:01.821Z,8.83
2023-04-17T13:26:28.395Z,8.00
2023-04-17T13:28:54.943Z,6.70
2023-04-17T13:31:21.476Z,23.03
2023-04-17T13:33:49.081Z,9.13
2023-04-17T13:36:15.585Z,7.40
2023-04-17T13:38:42.148Z,6.93
2023-04-17T13:41:08.668Z,6.73
2023-04-17T13:43:35.347Z,8.23
2023-04-17T13:46:02.010Z,6.83
2023-04-17T13:48:28.526Z,6.40
2023-04-17T13:50:55.044Z,6.13
2023-04-17T13:53:21.554Z,6.67
2023-04-17T13:55:48.487Z,25.33
2023-04-17T13:58:15.116Z,7.50
2023-04-17T14:00:41.634Z,6.60
2023-04-17T14:03:08.461Z,6.27
2023-04-17T14:05:35.293Z,10.37
2023-04-17T14:08:01.863Z,6.77
2023-04-17T14:10:28.368Z,7.50
2023-04-17T14:12:55.073Z,19.57
2023-04-17T14:15:21.625Z,13.00
2023-04-17T14:17:48.167Z,37.00
2023-04-17T14:20:16.716Z,7.03
2023-04-17T14:22:43.272Z,6.97
2023-04-17T14:25:09.906Z,6.10
2023-04-17T14:27:36.383Z,6.17
2023-04-17T14:30:03.066Z,6.53
2023-04-17T14:32:29.636Z,6.17
2023-04-17T14:34:56.200Z,6.50
2023-04-17T14:37:22.801Z,6.17
2023-04-17T14:39:49.353Z,6.23
2023-04-17T14:42:15.928Z,5.93
2023-04-17T14:44:44.067Z,5.80
2023-04-17T14:47:11.132Z,5.83
2023-04-17T14:49:37.735Z,6.30
2023-04-17T14:52:04.467Z,5.80
2023-04-17T14:54:31.105Z,8.00
2023-04-17T14:57:01.500Z,8.70
2023-04-17T14:59:28.523Z,25.80
2023-04-17T15:01:55.213Z,19.10
2023-04-17T15:04:22.027Z,8.60
2023-04-17T15:06:49.257Z,40.40
2023-04-17T15:09:15.810Z,30.53
2023-04-17T15:11:42.405Z,19.03
2023-04-17T15:14:08.933Z,18.03
2023-04-17T15:16:35.535Z,12.90
2023-04-17T15:19:02.100Z,9.77
2023-04-17T15:21:28.694Z,26.33
2023-04-17T15:23:55.227Z,20.60
2023-04-17T15:26:21.823Z,16.30
2023-04-17T15:28:48.401Z,14.70
2023-04-17T15:31:15.025Z,17.07
2023-04-17T15:33:41.665Z,16.30
2023-04-17T15:36:08.207Z,27.90
2023-04-17T15:38:34.728Z,13.50
2023-04-17T15:41:03.570Z,14.80
2023-04-17T15:43:30.512Z,17.97
2023-04-17T15:45:58.970Z,21.43
2023-04-17T15:48:25.624Z,9.97
2023-04-17T15:50:52.113Z,7.17
2023-04-17T15:53:18.687Z,13.90
2023-04-17T15:55:45.808Z,10.10
2023-04-17T15:58:12.408Z,12.37
2023-04-17T16:00:39.106Z,3.43
2023-04-17T16:03:24.482Z,5.23
2023-04-17T16:05:53.884Z,5.13
2023-04-17T16:08:49.421Z,5.60
2023-04-17T16:11:31.388Z,7.33
2023-04-17T16:14:39.198Z,15.87
2023-04-17T16:17:30.139Z,10.70
2023-04-17T16:20:06.675Z,3.93
2023-04-17T16:22:43.857Z,9.77
2023-04-17T16:25:12.381Z,9.80
2023-04-17T16:27:40.409Z,8.80
2023-04-17T16:30:08.101Z,6.03
2023-04-17T16:32:36.183Z,7.67
2023-04-17T16:35:03.381Z,7.37
2023-04-17T16:37:32.660Z,9.23
2023-04-17T16:40:05.272Z,8.27
2023-04-17T16:42:36.278Z,10.20
2023-04-17T16:45:10.315Z,8.27
2023-04-17T16:50:27.560Z,8.07
2023-04-17T16:53:25.295Z,8.13
2023-04-17T16:56:13.423Z,12.17
2023-04-17T16:58:40.804Z,11.80
2023-04-17T17:01:08.903Z,7.67
2023-04-17T17:03:49.946Z,7.00
2023-04-17T17:06:24.921Z,7.63
2023-04-17T17:08:54.541Z,9.10
2023-04-17T17:11:23.275Z,10.10
2023-04-17T17:13:54.936Z,14.50
2023-04-17T17:16:25.023Z,9.93
2023-04-17T17:19:04.851Z,11.57
2023-04-17T17:27:24.193Z,7.93
2023-04-17T17:30:16.884Z,8.83
2023-04-17T17:32:57.657Z,10.43
2023-04-17T17:35:41.712Z,10.53
2023-04-17T17:38:11.404Z,9.37
2023-04-17T17:40:42.819Z,8.40
2023-04-17T17:43:14.428Z,10.33
2023-04-17T17:45:43.703Z,11.43
2023-04-17T17:48:28.932Z,8.83
2023-04-17T17:51:10.779Z,13.77
2023-04-17T17:53:39.202Z,11.47
2023-04-17T17:56:07.864Z,11.88
2023-04-17T17:58:42.609Z,9.13
2023-04-17T18:01:10.964Z,9.53
2023-04-17T18:03:42.952Z,8.60
2023-04-17T18:06:18.583Z,9.27
2023-04-17T18:08:50.090Z,9.10
2023-04-17T18:11:30.804Z,9.83
2023-04-17T18:13:58.582Z,12.60
2023-04-17T18:16:26.916Z,14.93
2023-04-17T18:18:57.990Z,15.57
2023-04-17T18:21:36.112Z,14.77
2023-04-17T18:24:06.190Z,16.03
2023-04-17T18:26:37.061Z,13.47
2023-04-17T18:29:12.174Z,16.83
2023-04-17T18:31:40.677Z,16.95
2023-04-17T18:34:11.846Z,12.27
2023-04-17T18:36:46.718Z,12.00
2023-04-17T18:39:18.112Z,10.97
2023-04-17T18:41:48.833Z,11.57
2023-04-17T18:44:19.162Z,11.10
2023-04-17T18:46:46.947Z,11.80
2023-04-17T18:49:17.351Z,12.27
2023-04-17T18:51:48.117Z,13.00
2023-04-17T18:54:16.706Z,12.80
2023-04-17T18:56:50.976Z,12.17
2023-04-17T19:02:06.453Z,13.03
2023-04-17T19:04:36.827Z,13.97
2023-04-17T19:07:19.820Z,13.77
2023-04-17T19:09:50.333Z,15.17
2023-04-17T19:12:20.120Z,14.70
2023-04-17T19:14:55.466Z,14.37
2023-04-17T19:17:23.480Z,14.97
2023-04-17T19:19:53.381Z,15.90
2023-04-17T19:22:23.909Z,15.53
2023-04-17T19:24:53.669Z,15.13
2023-04-17T19:27:27.349Z,15.03
2023-04-17T19:29:59.525Z,15.10
2023-04-17T19:32:27.278Z,13.87
2023-04-17T19:34:56.652Z,15.07
2023-04-17T19:37:27.796Z,13.60
2023-04-17T19:39:58.326Z,14.77
2023-04-17T19:42:31.240Z,15.27
2023-04-17T19:45:02.655Z,14.67
2023-04-17T19:47:32.519Z,14.90
2023-04-17T19:50:06.884Z,15.43
2023-04-17T19:52:46.015Z,15.33
2023-04-17T19:55:16.620Z,14.97
2023-04-17T19:57:46.455Z,15.93
2023-04-17T20:00:17.952Z,15.73
2023-04-17T20:02:48.273Z,18.03
2023-04-17T20:05:19.119Z,22.73
2023-04-17T20:07:52.460Z,26.30
2023-04-17T20:10:21.530Z,22.60
2023-04-17T20:13:09.112Z,20.40
2023-04-17T20:15:57.694Z,20.23
2023-04-17T20:18:31.094Z,22.90
2023-04-17T20:20:58.793Z,18.83
2023-04-17T20:23:26.594Z,18.10
2023-04-17T20:25:56.778Z,17.57
2023-04-17T20:28:24.951Z,17.63
2023-04-17T20:30:58.033Z,18.97
2023-04-17T20:33:29.016Z,18.47
2023-04-17T20:35:59.467Z,19.93
2023-04-17T20:38:29.828Z,18.50
2023-04-17T20:40:57.245Z,19.17
2023-04-17T20:43:28.014Z,19.17
2023-04-17T20:45:58.914Z,18.60
2023-04-17T20:48:27.576Z,19.27
2023-04-17T20:50:55.167Z,19.70
2023-04-17T20:53:28.365Z,19.63
2023-04-17T20:55:57.790Z,17.40
2023-04-17T20:58:37.128Z,18.77
2023-04-17T21:01:05.612Z,19.37
2023-04-17T21:03:35.265Z,18.93
2023-04-17T21:06:06.334Z,18.60
2023-04-17T21:08:34.613Z,18.10
2023-04-17T21:11:05.591Z,18.70
2023-04-17T21:13:36.289Z,18.63
2023-04-17T21:16:04.208Z,19.07
2023-04-17T21:18:32.739Z,18.50
2023-04-17T21:21:03.678Z,17.27
2023-04-17T21:23:39.445Z,19.17
2023-04-17T21:26:07.902Z,17.67
2023-04-17T21:28:46.017Z,16.53
2023-04-17T21:31:19.357Z,17.37
2023-04-17T21:33:48.103Z,17.70
2023-04-17T21:36:23.153Z,17.87
2023-04-17T21:38:56.841Z,17.03
2023-04-17T21:41:28.296Z,16.80
2023-04-17T21:44:06.195Z,16.60
2023-04-17T21:46:42.660Z,16.20
2023-04-17T21:49:10.987Z,15.93
2023-04-17T21:52:05.234Z,16.43
2023-04-17T21:54:34.314Z,16.47
2023-04-17T21:57:03.220Z,15.90
2023-04-17T21:59:31.790Z,16.17
2023-04-17T22:02:02.694Z,15.13
2023-04-17T22:04:34.277Z,15.87
2023-04-17T22:07:02.423Z,14.70
2023-04-17T22:09:36.788Z,15.50
2023-04-17T22:12:15.613Z,14.73
2023-04-17T22:14:46.843Z,14.67
2023-04-17T22:17:19.250Z,15.43
2023-04-17T22:19:47.272Z,14.27
2023-04-17T22:22:16.996Z,14.20
2023-04-17T22:24:50.493Z,14.23
2023-04-17T22:27:21.383Z,14.53
2023-04-17T22:29:48.997Z,15.03
2023-04-17T22:32:20.587Z,15.33
2023-04-17T22:34:56.287Z,13.80
2023-04-17T22:37:29.988Z,15.63
2023-04-17T22:40:01.587Z,14.47
2023-04-17T22:42:29.511Z,13.60
2023-04-17T22:44:57.928Z,16.90
2023-04-17T22:47:26.365Z,14.77
2023-04-17T22:49:57.513Z,14.43
2023-04-17T22:52:27.976Z,14.80
2023-04-17T22:55:09.423Z,14.10
2023-04-17T22:57:40.505Z,13.73
2023-04-17T23:00:10.932Z,13.53
2023-04-17T23:02:39.356Z,13.87
2023-04-17T23:05:07.652Z,13.93
2023-04-17T23:07:35.765Z,14.53
2023-04-17T23:10:13.280Z,13.60
2023-04-17T23:12:47.213Z,14.57
2023-04-17T23:15:26.859Z,13.87
2023-04-17T23:18:00.638Z,14.80
2023-04-17T23:20:39.791Z,14.27
2023-04-17T23:23:09.539Z,15.03
2023-04-17T23:25:47.045Z,13.67
2023-04-17T23:28:15.337Z,13.77
2023-04-17T23:30:46.364Z,14.17
2023-04-17T23:33:14.846Z,14.10
2023-04-17T23:35:45.886Z,14.97
2023-04-17T23:38:17.080Z,14.17
2023-04-17T23:40:50.740Z,14.10
2023-04-17T23:43:26.736Z,12.80
2023-04-17T23:45:57.847Z,13.10
2023-04-17T23:48:29.433Z,12.63
2023-04-17T23:50:57.885Z,13.07
2023-04-17T23:53:29.845Z,11.97
2023-04-17T23:56:08.356Z,12.57
2023-04-17T23:58:39.297Z,12.70
